sensor_id;sensor_type;location;lat;lon;timestamp;temperature;humidity
8231;DHT22;4156;50.908;6.974;2023-07-09T00:01:52;26.30;99.90
8231;DHT22;4156;50.908;6.974;2023-07-09T00:04:18;26.20;99.90
8231;DHT22;4156;50.908;6.974;2023-07-09T00:06:44;26.20;99.90
8231;DHT22;4156;50.908;6.974;2023-07-09T00:09:28;26.20;99.90
8231;DHT22;4156;50.908;6.974;2023-07-09T00:11:54;26.20;99.90
8231;DHT22;4156;50.908;6.974;2023-07-09T00:14:20;26.30;99.90
8231;DHT22;4156;50.908;6.974;2023-07-09T00:16:46;26.10;99.90
8231;DHT22;4156;50.908;6.974;2023-07-09T00:19:20;26.10;99.90
8231;DHT22;4156;50.908;6.974;2023-07-09T00:21:49;25.90;99.90
8231;DHT22;4156;50.908;6.974;2023-07-09T00:24:18;26.10;99.90
8231;DHT22;4156;50.908;6.974;2023-07-09T00:26:44;26.00;99.90
8231;DHT22;4156;50.908;6.974;2023-07-09T00:29:12;26.00;99.90
8231;DHT22;4156;50.908;6.974;2023-07-09T00:31:38;25.90;99.90
8231;DHT22;4156;50.908;6.974;2023-07-09T00:34:10;25.80;99.90
8231;DHT22;4156;50.908;6.974;2023-07-09T00:36:40;25.90;99.90
8231;DHT22;4156;50.908;6.974;2023-07-09T00:39:22;25.90;99.90
8231;DHT22;4156;50.908;6.974;2023-07-09T00:41:49;26.10;99.90
8231;DHT22;4156;50.908;6.974;2023-07-09T00:44:30;25.90;99.90
8231;DHT22;4156;50.908;6.974;2023-07-09T00:49:36;25.80;99.90
8231;DHT22;4156;50.908;6.974;2023-07-09T00:52:28;25.80;99.90
8231;DHT22;4156;50.908;6.974;2023-07-09T00:55:00;25.80;99.90
8231;DHT22;4156;50.908;6.974;2023-07-09T00:57:29;25.80;99.90
8231;DHT22;4156;50.908;6.974;2023-07-09T01:00:03;26.20;99.90
8231;DHT22;4156;50.908;6.974;2023-07-09T01:02:38;25.40;99.90
8231;DHT22;4156;50.908;6.974;2023-07-09T01:05:09;25.70;99.90
8231;DHT22;4156;50.908;6.974;2023-07-09T01:07:37;26.00;99.90
8231;DHT22;4156;50.908;6.974;2023-07-09T01:10:03;25.60;99.90
8231;DHT22;4156;50.908;6.974;2023-07-09T01:12:28;25.60;99.90
8231;DHT22;4156;50.908;6.974;2023-07-09T01:14:56;25.60;99.90
8231;DHT22;4156;50.908;6.974;2023-07-09T01:17:25;25.60;99.90
8231;DHT22;4156;50.908;6.974;2023-07-09T01:19:53;25.60;99.90
8231;DHT22;4156;50.908;6.974;2023-07-09T01:22:20;25.70;99.90
8231;DHT22;4156;50.908;6.974;2023-07-09T01:25:00;25.50;99.90
8231;DHT22;4156;50.908;6.974;2023-07-09T01:27:39;25.50;99.90
8231;DHT22;4156;50.908;6.974;2023-07-09T01:30:11;25.50;99.90
8231;DHT22;4156;50.908;6.974;2023-07-09T01:32:38;25.40;99.90
8231;DHT22;4156;50.908;6.974;2023-07-09T01:35:05;25.40;99.90
8231;DHT22;4156;50.908;6.974;2023-07-09T01:37:35;25.40;99.90
8231;DHT22;4156;50.908;6.974;2023-07-09T01:40:02;25.60;99.90
8231;DHT22;4156;50.908;6.974;2023-07-09T01:42:30;25.40;99.90
8231;DHT22;4156;50.908;6.974;2023-07-09T01:44:55;25.40;99.90
8231;DHT22;4156;50.908;6.974;2023-07-09T01:47:22;25.30;99.90
8231;DHT22;4156;50.908;6.974;2023-07-09T01:49:50;25.30;99.90
8231;DHT22;4156;50.908;6.974;2023-07-09T01:52:16;25.30;99.90
8231;DHT22;4156;50.908;6.974;2023-07-09T01:54:44;25.30;99.90
8231;DHT22;4156;50.908;6.974;2023-07-09T01:57:23;25.20;99.90
8231;DHT22;4156;50.908;6.974;2023-07-09T01:59:50;25.20;99.90
8231;DHT22;4156;50.908;6.974;2023-07-09T02:02:17;25.30;99.90
8231;DHT22;4156;50.908;6.974;2023-07-09T02:04:50;25.70;99.90
8231;DHT22;4156;50.908;6.974;2023-07-09T02:07:15;25.20;99.90
8231;DHT22;4156;50.908;6.974;2023-07-09T02:09:41;25.20;99.90
8231;DHT22;4156;50.908;6.974;2023-07-09T02:12:08;25.10;99.90
8231;DHT22;4156;50.908;6.974;2023-07-09T02:14:35;25.10;99.90
8231;DHT22;4156;50.908;6.974;2023-07-09T02:17:01;25.10;99.90
8231;DHT22;4156;50.908;6.974;2023-07-09T02:19:28;25.10;99.90
8231;DHT22;4156;50.908;6.974;2023-07-09T02:21:54;25.30;99.90
8231;DHT22;4156;50.908;6.974;2023-07-09T02:24:20;25.10;99.90
8231;DHT22;4156;50.908;6.974;2023-07-09T02:26:50;25.10;99.90
8231;DHT22;4156;50.908;6.974;2023-07-09T02:29:15;25.10;99.90
8231;DHT22;4156;50.908;6.974;2023-07-09T02:31:41;25.10;99.90
8231;DHT22;4156;50.908;6.974;2023-07-09T02:34:07;25.00;99.90
8231;DHT22;4156;50.908;6.974;2023-07-09T02:36:32;24.90;99.90
8231;DHT22;4156;50.908;6.974;2023-07-09T02:38:58;24.90;99.90
8231;DHT22;4156;50.908;6.974;2023-07-09T02:41:23;25.00;99.90
8231;DHT22;4156;50.908;6.974;2023-07-09T02:43:49;24.90;99.90
8231;DHT22;4156;50.908;6.974;2023-07-09T02:46:14;24.90;99.90
8231;DHT22;4156;50.908;6.974;2023-07-09T02:48:40;25.00;99.90
8231;DHT22;4156;50.908;6.974;2023-07-09T02:51:05;24.80;99.90
8231;DHT22;4156;50.908;6.974;2023-07-09T02:53:31;24.80;99.90
8231;DHT22;4156;50.908;6.974;2023-07-09T02:55:56;24.80;99.90
8231;DHT22;4156;50.908;6.974;2023-07-09T02:58:22;24.80;99.90
8231;DHT22;4156;50.908;6.974;2023-07-09T03:00:50;24.70;99.90
8231;DHT22;4156;50.908;6.974;2023-07-09T03:03:21;24.70;99.90
8231;DHT22;4156;50.908;6.974;2023-07-09T03:05:47;24.70;99.90
8231;DHT22;4156;50.908;6.974;2023-07-09T03:08:13;24.70;99.90
8231;DHT22;4156;50.908;6.974;2023-07-09T03:10:40;24.70;99.90
8231;DHT22;4156;50.908;6.974;2023-07-09T03:13:06;24.60;99.90
8231;DHT22;4156;50.908;6.974;2023-07-09T03:15:31;24.50;99.90
8231;DHT22;4156;50.908;6.974;2023-07-09T03:17:57;24.50;99.90
8231;DHT22;4156;50.908;6.974;2023-07-09T03:20:23;24.70;99.90
8231;DHT22;4156;50.908;6.974;2023-07-09T03:22:48;24.50;99.90
8231;DHT22;4156;50.908;6.974;2023-07-09T03:25:14;24.50;99.90
8231;DHT22;4156;50.908;6.974;2023-07-09T03:27:39;24.50;99.90
8231;DHT22;4156;50.908;6.974;2023-07-09T03:30:05;24.40;99.90
8231;DHT22;4156;50.908;6.974;2023-07-09T03:32:31;24.40;99.90
8231;DHT22;4156;50.908;6.974;2023-07-09T03:34:57;24.40;99.90
8231;DHT22;4156;50.908;6.974;2023-07-09T03:37:22;24.40;99.90
8231;DHT22;4156;50.908;6.974;2023-07-09T03:39:48;24.30;99.90
8231;DHT22;4156;50.908;6.974;2023-07-09T03:42:13;24.50;99.90
8231;DHT22;4156;50.908;6.974;2023-07-09T03:44:39;24.30;99.90
8231;DHT22;4156;50.908;6.974;2023-07-09T03:47:06;24.60;99.90
8231;DHT22;4156;50.908;6.974;2023-07-09T03:49:31;24.30;99.90
8231;DHT22;4156;50.908;6.974;2023-07-09T03:51:57;24.30;99.90
8231;DHT22;4156;50.908;6.974;2023-07-09T03:54:22;24.90;99.90
8231;DHT22;4156;50.908;6.974;2023-07-09T03:56:48;24.20;99.90
8231;DHT22;4156;50.908;6.974;2023-07-09T03:59:13;24.40;99.90
8231;DHT22;4156;50.908;6.974;2023-07-09T04:01:39;24.40;99.90
8231;DHT22;4156;50.908;6.974;2023-07-09T04:04:04;24.20;99.90
8231;DHT22;4156;50.908;6.974;2023-07-09T04:06:30;24.50;99.90
8231;DHT22;4156;50.908;6.974;2023-07-09T04:08:55;24.20;99.90
8231;DHT22;4156;50.908;6.974;2023-07-09T04:11:21;24.20;99.90
8231;DHT22;4156;50.908;6.974;2023-07-09T04:13:46;24.20;99.90
8231;DHT22;4156;50.908;6.974;2023-07-09T04:16:12;24.20;99.90
8231;DHT22;4156;50.908;6.974;2023-07-09T04:18:38;24.20;99.90
8231;DHT22;4156;50.908;6.974;2023-07-09T04:21:03;24.10;99.90
8231;DHT22;4156;50.908;6.974;2023-07-09T04:23:29;23.90;99.90
8231;DHT22;4156;50.908;6.974;2023-07-09T04:25:54;24.50;99.90
8231;DHT22;4156;50.908;6.974;2023-07-09T04:28:20;25.70;99.90
8231;DHT22;4156;50.908;6.974;2023-07-09T04:30:51;24.20;99.90
8231;DHT22;4156;50.908;6.974;2023-07-09T04:33:18;24.20;99.90
8231;DHT22;4156;50.908;6.974;2023-07-09T04:35:45;24.60;99.90
8231;DHT22;4156;50.908;6.974;2023-07-09T04:38:11;24.30;99.90
8231;DHT22;4156;50.908;6.974;2023-07-09T04:40:37;24.30;99.90
8231;DHT22;4156;50.908;6.974;2023-07-09T04:43:02;24.30;99.90
8231;DHT22;4156;50.908;6.974;2023-07-09T04:45:28;24.20;99.90
8231;DHT22;4156;50.908;6.974;2023-07-09T04:47:53;24.20;99.90
8231;DHT22;4156;50.908;6.974;2023-07-09T04:50:19;24.20;99.90
8231;DHT22;4156;50.908;6.974;2023-07-09T04:52:44;24.20;99.90
8231;DHT22;4156;50.908;6.974;2023-07-09T04:55:10;24.20;99.90
8231;DHT22;4156;50.908;6.974;2023-07-09T04:57:35;24.30;99.90
8231;DHT22;4156;50.908;6.974;2023-07-09T05:00:02;24.30;99.90
8231;DHT22;4156;50.908;6.974;2023-07-09T05:02:29;24.30;99.90
8231;DHT22;4156;50.908;6.974;2023-07-09T05:04:55;24.40;99.90
8231;DHT22;4156;50.908;6.974;2023-07-09T05:07:20;24.60;99.90
8231;DHT22;4156;50.908;6.974;2023-07-09T05:09:46;24.40;99.90
8231;DHT22;4156;50.908;6.974;2023-07-09T05:12:12;24.50;99.90
8231;DHT22;4156;50.908;6.974;2023-07-09T05:14:39;24.40;99.90
8231;DHT22;4156;50.908;6.974;2023-07-09T05:17:05;24.50;99.90
8231;DHT22;4156;50.908;6.974;2023-07-09T05:19:31;24.50;99.90
8231;DHT22;4156;50.908;6.974;2023-07-09T05:21:57;24.50;99.90
8231;DHT22;4156;50.908;6.974;2023-07-09T05:24:22;24.50;99.90
8231;DHT22;4156;50.908;6.974;2023-07-09T05:26:48;24.60;99.90
8231;DHT22;4156;50.908;6.974;2023-07-09T05:29:13;24.60;99.90
8231;DHT22;4156;50.908;6.974;2023-07-09T05:31:39;24.60;99.90
8231;DHT22;4156;50.908;6.974;2023-07-09T05:34:07;24.60;99.90
8231;DHT22;4156;50.908;6.974;2023-07-09T05:36:33;25.10;99.90
8231;DHT22;4156;50.908;6.974;2023-07-09T05:38:58;24.90;99.90
8231;DHT22;4156;50.908;6.974;2023-07-09T05:41:24;24.80;99.90
8231;DHT22;4156;50.908;6.974;2023-07-09T05:43:51;24.80;99.90
8231;DHT22;4156;50.908;6.974;2023-07-09T05:46:17;24.80;99.90
8231;DHT22;4156;50.908;6.974;2023-07-09T05:48:42;24.80;99.90
8231;DHT22;4156;50.908;6.974;2023-07-09T05:51:08;24.80;99.90
8231;DHT22;4156;50.908;6.974;2023-07-09T05:53:33;24.90;99.90
8231;DHT22;4156;50.908;6.974;2023-07-09T05:55:59;25.10;99.90
8231;DHT22;4156;50.908;6.974;2023-07-09T05:58:25;24.90;99.90
8231;DHT22;4156;50.908;6.974;2023-07-09T06:00:51;25.10;99.90
8231;DHT22;4156;50.908;6.974;2023-07-09T06:03:22;25.00;99.90
8231;DHT22;4156;50.908;6.974;2023-07-09T06:05:48;25.10;99.90
8231;DHT22;4156;50.908;6.974;2023-07-09T06:08:21;25.30;99.90
8231;DHT22;4156;50.908;6.974;2023-07-09T06:10:59;25.10;99.90
8231;DHT22;4156;50.908;6.974;2023-07-09T06:13:26;25.20;99.90
8231;DHT22;4156;50.908;6.974;2023-07-09T06:15:54;25.30;99.90
8231;DHT22;4156;50.908;6.974;2023-07-09T06:18:22;25.20;99.90
8231;DHT22;4156;50.908;6.974;2023-07-09T06:20:55;25.30;99.90
8231;DHT22;4156;50.908;6.974;2023-07-09T06:23:21;25.30;99.90
8231;DHT22;4156;50.908;6.974;2023-07-09T06:25:47;25.30;99.90
8231;DHT22;4156;50.908;6.974;2023-07-09T06:28:18;25.40;99.90
8231;DHT22;4156;50.908;6.974;2023-07-09T06:30:44;25.40;99.90
8231;DHT22;4156;50.908;6.974;2023-07-09T06:33:12;25.50;99.90
8231;DHT22;4156;50.908;6.974;2023-07-09T06:35:38;25.50;99.90
8231;DHT22;4156;50.908;6.974;2023-07-09T06:38:05;25.70;99.90
8231;DHT22;4156;50.908;6.974;2023-07-09T06:40:31;25.80;99.90
8231;DHT22;4156;50.908;6.974;2023-07-09T06:42:56;25.50;99.90
8231;DHT22;4156;50.908;6.974;2023-07-09T06:45:23;25.60;99.90
8231;DHT22;4156;50.908;6.974;2023-07-09T06:47:49;25.60;99.90
8231;DHT22;4156;50.908;6.974;2023-07-09T06:50:15;25.60;99.90
8231;DHT22;4156;50.908;6.974;2023-07-09T06:52:40;25.70;99.90
8231;DHT22;4156;50.908;6.974;2023-07-09T06:55:07;25.70;99.90
8231;DHT22;4156;50.908;6.974;2023-07-09T06:57:32;25.70;99.90
8231;DHT22;4156;50.908;6.974;2023-07-09T06:59:58;25.70;99.90
8231;DHT22;4156;50.908;6.974;2023-07-09T07:02:23;25.80;99.90
8231;DHT22;4156;50.908;6.974;2023-07-09T07:04:49;25.90;99.90
8231;DHT22;4156;50.908;6.974;2023-07-09T07:07:15;25.90;99.90
8231;DHT22;4156;50.908;6.974;2023-07-09T07:09:41;25.90;99.90
8231;DHT22;4156;50.908;6.974;2023-07-09T07:12:07;25.90;99.90
8231;DHT22;4156;50.908;6.974;2023-07-09T07:14:33;26.00;99.90
8231;DHT22;4156;50.908;6.974;2023-07-09T07:16:58;25.90;99.90
8231;DHT22;4156;50.908;6.974;2023-07-09T07:19:24;26.00;99.90
8231;DHT22;4156;50.908;6.974;2023-07-09T07:21:49;27.10;99.90
8231;DHT22;4156;50.908;6.974;2023-07-09T07:24:15;26.10;99.90
8231;DHT22;4156;50.908;6.974;2023-07-09T07:26:41;26.10;99.90
8231;DHT22;4156;50.908;6.974;2023-07-09T07:29:06;26.10;99.90
8231;DHT22;4156;50.908;6.974;2023-07-09T07:31:32;26.20;99.90
8231;DHT22;4156;50.908;6.974;2023-07-09T07:33:58;26.30;99.90
8231;DHT22;4156;50.908;6.974;2023-07-09T07:36:23;25.80;99.90
8231;DHT22;4156;50.908;6.974;2023-07-09T07:38:49;27.50;99.90
8231;DHT22;4156;50.908;6.974;2023-07-09T07:41:15;26.50;99.90
8231;DHT22;4156;50.908;6.974;2023-07-09T07:43:41;26.30;99.90
8231;DHT22;4156;50.908;6.974;2023-07-09T07:46:07;25.60;99.90
8231;DHT22;4156;50.908;6.974;2023-07-09T07:48:33;26.50;99.90
8231;DHT22;4156;50.908;6.974;2023-07-09T07:51:02;26.50;99.90
8231;DHT22;4156;50.908;6.974;2023-07-09T07:53:30;26.40;99.90
8231;DHT22;4156;50.908;6.974;2023-07-09T07:55:57;26.50;99.90
8231;DHT22;4156;50.908;6.974;2023-07-09T07:58:23;26.70;99.90
8231;DHT22;4156;50.908;6.974;2023-07-09T08:00:49;26.50;99.90
8231;DHT22;4156;50.908;6.974;2023-07-09T08:03:17;26.60;99.90
8231;DHT22;4156;50.908;6.974;2023-07-09T08:05:49;27.90;99.90
8231;DHT22;4156;50.908;6.974;2023-07-09T08:08:14;25.80;99.90
8231;DHT22;4156;50.908;6.974;2023-07-09T08:10:42;26.70;99.90
8231;DHT22;4156;50.908;6.974;2023-07-09T08:13:09;26.70;99.90
8231;DHT22;4156;50.908;6.974;2023-07-09T08:15:39;26.80;99.90
8231;DHT22;4156;50.908;6.974;2023-07-09T08:18:06;26.50;99.90
8231;DHT22;4156;50.908;6.974;2023-07-09T08:20:32;26.90;99.90
8231;DHT22;4156;50.908;6.974;2023-07-09T08:23:00;26.80;99.90
8231;DHT22;4156;50.908;6.974;2023-07-09T08:25:39;26.90;99.90
8231;DHT22;4156;50.908;6.974;2023-07-09T08:28:09;26.10;99.90
8231;DHT22;4156;50.908;6.974;2023-07-09T08:30:37;27.00;99.90
8231;DHT22;4156;50.908;6.974;2023-07-09T08:33:23;27.10;99.90
8231;DHT22;4156;50.908;6.974;2023-07-09T08:35:51;27.10;99.90
8231;DHT22;4156;50.908;6.974;2023-07-09T08:38:46;27.00;99.90
8231;DHT22;4156;50.908;6.974;2023-07-09T08:41:56;27.30;99.90
8231;DHT22;4156;50.908;6.974;2023-07-09T08:48:04;27.20;99.90
8231;DHT22;4156;50.908;6.974;2023-07-09T08:51:32;27.40;99.90
8231;DHT22;4156;50.908;6.974;2023-07-09T08:53:58;27.30;99.90
8231;DHT22;4156;50.908;6.974;2023-07-09T08:56:50;27.60;99.90
8231;DHT22;4156;50.908;6.974;2023-07-09T08:59:57;27.40;99.90
8231;DHT22;4156;50.908;6.974;2023-07-09T09:05:59;27.40;99.90
8231;DHT22;4156;50.908;6.974;2023-07-09T09:15:32;27.60;99.90
8231;DHT22;4156;50.908;6.974;2023-07-09T09:50:31;28.10;99.90
8231;DHT22;4156;50.908;6.974;2023-07-09T09:52:59;28.10;99.90
8231;DHT22;4156;50.908;6.974;2023-07-09T09:55:44;28.60;99.90
8231;DHT22;4156;50.908;6.974;2023-07-09T09:58:13;28.10;99.90
8231;DHT22;4156;50.908;6.974;2023-07-09T10:00:39;28.30;99.90
8231;DHT22;4156;50.908;6.974;2023-07-09T10:39:59;28.80;99.90
8231;DHT22;4156;50.908;6.974;2023-07-09T10:42:32;28.20;99.90
8231;DHT22;4156;50.908;6.974;2023-07-09T10:45:11;28.90;99.90
8231;DHT22;4156;50.908;6.974;2023-07-09T10:47:49;28.90;99.90
8231;DHT22;4156;50.908;6.974;2023-07-09T10:55:49;29.00;99.90
8231;DHT22;4156;50.908;6.974;2023-07-09T10:58:25;28.60;99.90
8231;DHT22;4156;50.908;6.974;2023-07-09T11:00:54;29.10;99.90
8231;DHT22;4156;50.908;6.974;2023-07-09T11:03:24;30.30;99.90
8231;DHT22;4156;50.908;6.974;2023-07-09T11:05:54;30.20;99.90
8231;DHT22;4156;50.908;6.974;2023-07-09T11:08:31;29.30;99.90
8231;DHT22;4156;50.908;6.974;2023-07-09T11:11:05;29.30;99.90
8231;DHT22;4156;50.908;6.974;2023-07-09T11:13:55;29.30;99.90
8231;DHT22;4156;50.908;6.974;2023-07-09T11:16:35;30.20;99.90
8231;DHT22;4156;50.908;6.974;2023-07-09T11:19:05;29.40;99.90
8231;DHT22;4156;50.908;6.974;2023-07-09T11:21:32;29.50;99.90
8231;DHT22;4156;50.908;6.974;2023-07-09T11:24:00;29.50;99.90
8231;DHT22;4156;50.908;6.974;2023-07-09T11:26:31;29.50;99.90
8231;DHT22;4156;50.908;6.974;2023-07-09T11:29:29;29.40;99.90
8231;DHT22;4156;50.908;6.974;2023-07-09T11:31:55;29.60;99.90
8231;DHT22;4156;50.908;6.974;2023-07-09T11:34:27;29.70;99.90
8231;DHT22;4156;50.908;6.974;2023-07-09T11:39:29;29.70;99.90
8231;DHT22;4156;50.908;6.974;2023-07-09T11:41:55;29.80;99.90
8231;DHT22;4156;50.908;6.974;2023-07-09T11:44:27;29.90;99.90
8231;DHT22;4156;50.908;6.974;2023-07-09T11:49:49;29.90;99.90
8231;DHT22;4156;50.908;6.974;2023-07-09T11:52:22;30.00;99.90
8231;DHT22;4156;50.908;6.974;2023-07-09T11:54:50;29.90;99.90
8231;DHT22;4156;50.908;6.974;2023-07-09T11:57:18;30.00;99.90
8231;DHT22;4156;50.908;6.974;2023-07-09T11:59:43;30.00;99.90
8231;DHT22;4156;50.908;6.974;2023-07-09T12:02:32;29.70;99.90
8231;DHT22;4156;50.908;6.974;2023-07-09T12:04:58;30.10;99.90
8231;DHT22;4156;50.908;6.974;2023-07-09T12:07:24;30.10;99.90
8231;DHT22;4156;50.908;6.974;2023-07-09T12:09:51;30.70;99.90
8231;DHT22;4156;50.908;6.974;2023-07-09T12:12:26;30.20;99.90
8231;DHT22;4156;50.908;6.974;2023-07-09T12:14:51;30.20;99.90
8231;DHT22;4156;50.908;6.974;2023-07-09T12:17:18;30.20;99.90
8231;DHT22;4156;50.908;6.974;2023-07-09T12:19:44;30.30;99.90
8231;DHT22;4156;50.908;6.974;2023-07-09T12:24:48;30.30;99.90
8231;DHT22;4156;50.908;6.974;2023-07-09T12:29:51;30.40;99.90
8231;DHT22;4156;50.908;6.974;2023-07-09T12:47:43;30.60;99.90
8231;DHT22;4156;50.908;6.974;2023-07-09T12:50:30;30.60;99.90
8231;DHT22;4156;50.908;6.974;2023-07-09T13:11:17;30.70;99.90
8231;DHT22;4156;50.908;6.974;2023-07-09T13:21:19;30.90;99.90
8231;DHT22;4156;50.908;6.974;2023-07-09T13:26:20;30.90;99.90
8231;DHT22;4156;50.908;6.974;2023-07-09T13:28:46;32.00;99.90
8231;DHT22;4156;50.908;6.974;2023-07-09T13:36:22;30.90;99.90
8231;DHT22;4156;50.908;6.974;2023-07-09T13:41:24;31.00;99.90
8231;DHT22;4156;50.908;6.974;2023-07-09T13:46:26;31.00;99.90
8231;DHT22;4156;50.908;6.974;2023-07-09T14:01:51;31.00;99.90
8231;DHT22;4156;50.908;6.974;2023-07-09T14:04:20;31.20;99.90
8231;DHT22;4156;50.908;6.974;2023-07-09T14:06:46;31.00;99.90
8231;DHT22;4156;50.908;6.974;2023-07-09T14:14:27;31.10;99.90
8231;DHT22;4156;50.908;6.974;2023-07-09T14:16:56;31.00;99.90
8231;DHT22;4156;50.908;6.974;2023-07-09T14:19:23;31.00;99.90
8231;DHT22;4156;50.908;6.974;2023-07-09T14:21:49;31.00;99.90
8231;DHT22;4156;50.908;6.974;2023-07-09T14:24:27;31.00;99.90
8231;DHT22;4156;50.908;6.974;2023-07-09T14:26:54;31.00;99.90
8231;DHT22;4156;50.908;6.974;2023-07-09T14:29:21;30.90;99.90
8231;DHT22;4156;50.908;6.974;2023-07-09T14:31:47;30.90;99.90
8231;DHT22;4156;50.908;6.974;2023-07-09T14:34:24;31.00;99.90
8231;DHT22;4156;50.908;6.974;2023-07-09T14:36:54;30.90;99.90
8231;DHT22;4156;50.908;6.974;2023-07-09T14:39:21;30.90;99.90
8231;DHT22;4156;50.908;6.974;2023-07-09T14:41:47;30.90;99.90
8231;DHT22;4156;50.908;6.974;2023-07-09T14:49:17;30.70;99.90
8231;DHT22;4156;50.908;6.974;2023-07-09T14:51:44;30.60;99.90
8231;DHT22;4156;50.908;6.974;2023-07-09T14:54:24;30.50;99.90
8231;DHT22;4156;50.908;6.974;2023-07-09T14:56:52;30.40;99.90
8231;DHT22;4156;50.908;6.974;2023-07-09T14:59:17;30.30;99.90
8231;DHT22;4156;50.908;6.974;2023-07-09T15:09:36;30.10;99.90
8231;DHT22;4156;50.908;6.974;2023-07-09T15:14:38;29.90;99.90
8231;DHT22;4156;50.908;6.974;2023-07-09T15:17:04;29.30;99.90
8231;DHT22;4156;50.908;6.974;2023-07-09T15:22:05;29.70;99.90
8231;DHT22;4156;50.908;6.974;2023-07-09T15:32:22;29.50;99.90
8231;DHT22;4156;50.908;6.974;2023-07-09T15:45:13;29.30;99.90
8231;DHT22;4156;50.908;6.974;2023-07-09T15:47:39;29.30;99.90
8231;DHT22;4156;50.908;6.974;2023-07-09T15:50:17;29.30;99.90
8231;DHT22;4156;50.908;6.974;2023-07-09T15:52:44;29.30;99.90
8231;DHT22;4156;50.908;6.974;2023-07-09T15:55:21;29.10;99.90
8231;DHT22;4156;50.908;6.974;2023-07-09T16:02:58;29.30;99.90
8231;DHT22;4156;50.908;6.974;2023-07-09T16:05:29;29.40;99.90
8231;DHT22;4156;50.908;6.974;2023-07-09T16:07:56;29.20;99.90
8231;DHT22;4156;50.908;6.974;2023-07-09T16:21:25;29.20;99.90
8231;DHT22;4156;50.908;6.974;2023-07-09T16:23:52;29.10;99.90
8231;DHT22;4156;50.908;6.974;2023-07-09T16:26:18;29.10;99.90
8231;DHT22;4156;50.908;6.974;2023-07-09T16:33:47;28.90;99.90
8231;DHT22;4156;50.908;6.974;2023-07-09T16:41:30;28.80;99.90
8231;DHT22;4156;50.908;6.974;2023-07-09T16:43:56;28.80;99.90
8231;DHT22;4156;50.908;6.974;2023-07-09T16:48:57;28.80;99.90
8231;DHT22;4156;50.908;6.974;2023-07-09T16:51:24;29.90;99.90
8231;DHT22;4156;50.908;6.974;2023-07-09T16:53:50;29.00;99.90
8231;DHT22;4156;50.908;6.974;2023-07-09T17:01:27;28.70;99.90
8231;DHT22;4156;50.908;6.974;2023-07-09T17:03:52;28.70;99.90
8231;DHT22;4156;50.908;6.974;2023-07-09T17:06:18;29.10;99.90
8231;DHT22;4156;50.908;6.974;2023-07-09T17:08:43;29.00;99.90
8231;DHT22;4156;50.908;6.974;2023-07-09T17:11:09;28.90;99.90
8231;DHT22;4156;50.908;6.974;2023-07-09T17:13:36;28.60;99.90
8231;DHT22;4156;50.908;6.974;2023-07-09T17:16:01;28.60;99.90
8231;DHT22;4156;50.908;6.974;2023-07-09T17:18:29;28.60;99.90
8231;DHT22;4156;50.908;6.974;2023-07-09T17:20:58;28.60;99.90
8231;DHT22;4156;50.908;6.974;2023-07-09T17:23:24;28.50;99.90
8231;DHT22;4156;50.908;6.974;2023-07-09T17:25:55;28.60;99.90
8231;DHT22;4156;50.908;6.974;2023-07-09T17:28:26;28.70;99.90
8231;DHT22;4156;50.908;6.974;2023-07-09T17:30:53;28.60;99.90
8231;DHT22;4156;50.908;6.974;2023-07-09T17:33:19;28.60;99.90
8231;DHT22;4156;50.908;6.974;2023-07-09T17:35:47;28.60;99.90
8231;DHT22;4156;50.908;6.974;2023-07-09T17:38:16;28.50;99.90
8231;DHT22;4156;50.908;6.974;2023-07-09T17:40:42;28.70;99.90
8231;DHT22;4156;50.908;6.974;2023-07-09T17:43:19;28.70;99.90
8231;DHT22;4156;50.908;6.974;2023-07-09T17:45:45;28.70;99.90
8231;DHT22;4156;50.908;6.974;2023-07-09T17:48:16;28.60;99.90
8231;DHT22;4156;50.908;6.974;2023-07-09T17:50:42;28.70;99.90
8231;DHT22;4156;50.908;6.974;2023-07-09T17:53:16;28.70;99.90
8231;DHT22;4156;50.908;6.974;2023-07-09T17:55:42;28.70;99.90
8231;DHT22;4156;50.908;6.974;2023-07-09T17:58:11;28.70;99.90
8231;DHT22;4156;50.908;6.974;2023-07-09T18:00:37;28.90;99.90
8231;DHT22;4156;50.908;6.974;2023-07-09T18:03:08;28.80;99.90
8231;DHT22;4156;50.908;6.974;2023-07-09T18:05:35;28.70;99.90
8231;DHT22;4156;50.908;6.974;2023-07-09T18:08:01;28.70;99.90
8231;DHT22;4156;50.908;6.974;2023-07-09T18:10:32;28.70;99.90
8231;DHT22;4156;50.908;6.974;2023-07-09T18:18:11;28.70;99.90
8231;DHT22;4156;50.908;6.974;2023-07-09T18:28:35;28.70;99.90
8231;DHT22;4156;50.908;6.974;2023-07-09T18:31:09;28.60;99.90
8231;DHT22;4156;50.908;6.974;2023-07-09T18:33:35;28.20;99.90
8231;DHT22;4156;50.908;6.974;2023-07-09T18:38:36;28.70;99.90
8231;DHT22;4156;50.908;6.974;2023-07-09T18:41:11;28.70;99.90
8231;DHT22;4156;50.908;6.974;2023-07-09T18:43:38;28.70;99.90
8231;DHT22;4156;50.908;6.974;2023-07-09T18:54:11;28.60;99.90
8231;DHT22;4156;50.908;6.974;2023-07-09T18:56:37;28.60;99.90
8231;DHT22;4156;50.908;6.974;2023-07-09T18:59:12;28.60;99.90
8231;DHT22;4156;50.908;6.974;2023-07-09T19:06:42;28.60;99.90
8231;DHT22;4156;50.908;6.974;2023-07-09T19:09:16;29.80;99.90
8231;DHT22;4156;50.908;6.974;2023-07-09T19:11:42;28.30;99.90
8231;DHT22;4156;50.908;6.974;2023-07-09T19:14:08;29.00;99.90
8231;DHT22;4156;50.908;6.974;2023-07-09T19:16:34;29.40;99.90
8231;DHT22;4156;50.908;6.974;2023-07-09T19:24:38;28.50;99.90
8231;DHT22;4156;50.908;6.974;2023-07-09T19:27:05;28.50;99.90
8231;DHT22;4156;50.908;6.974;2023-07-09T19:32:19;28.40;99.90
8231;DHT22;4156;50.908;6.974;2023-07-09T19:37:43;28.40;99.90
8231;DHT22;4156;50.908;6.974;2023-07-09T19:42:45;28.30;99.90
8231;DHT22;4156;50.908;6.974;2023-07-09T19:45:15;28.30;99.90
8231;DHT22;4156;50.908;6.974;2023-07-09T19:52:54;28.20;99.90
8231;DHT22;4156;50.908;6.974;2023-07-09T19:55:25;28.30;99.90
8231;DHT22;4156;50.908;6.974;2023-07-09T19:57:52;28.20;99.90
8231;DHT22;4156;50.908;6.974;2023-07-09T20:00:20;28.20;99.90
8231;DHT22;4156;50.908;6.974;2023-07-09T20:02:47;28.20;99.90
8231;DHT22;4156;50.908;6.974;2023-07-09T20:07:40;28.10;99.90
8231;DHT22;4156;50.908;6.974;2023-07-09T20:10:05;28.10;99.90
8231;DHT22;4156;50.908;6.974;2023-07-09T20:12:31;28.10;99.90
8231;DHT22;4156;50.908;6.974;2023-07-09T20:14:57;28.10;99.90
8231;DHT22;4156;50.908;6.974;2023-07-09T20:17:22;28.00;99.90
8231;DHT22;4156;50.908;6.974;2023-07-09T20:19:48;28.00;99.90
8231;DHT22;4156;50.908;6.974;2023-07-09T20:22:15;28.10;99.90
8231;DHT22;4156;50.908;6.974;2023-07-09T20:24:42;28.00;99.90
8231;DHT22;4156;50.908;6.974;2023-07-09T20:27:14;27.90;99.90
8231;DHT22;4156;50.908;6.974;2023-07-09T20:29:40;27.90;99.90
8231;DHT22;4156;50.908;6.974;2023-07-09T20:32:15;27.90;99.90
8231;DHT22;4156;50.908;6.974;2023-07-09T20:34:45;27.90;99.90
8231;DHT22;4156;50.908;6.974;2023-07-09T20:37:11;27.90;99.90
8231;DHT22;4156;50.908;6.974;2023-07-09T20:39:37;27.70;99.90
8231;DHT22;4156;50.908;6.974;2023-07-09T20:42:04;27.90;99.90
8231;DHT22;4156;50.908;6.974;2023-07-09T20:44:36;27.80;99.90
8231;DHT22;4156;50.908;6.974;2023-07-09T20:47:02;27.80;99.90
8231;DHT22;4156;50.908;6.974;2023-07-09T20:49:33;27.80;99.90
8231;DHT22;4156;50.908;6.974;2023-07-09T20:52:00;27.70;99.90
8231;DHT22;4156;50.908;6.974;2023-07-09T20:54:26;27.70;99.90
8231;DHT22;4156;50.908;6.974;2023-07-09T20:56:55;27.70;99.90
8231;DHT22;4156;50.908;6.974;2023-07-09T20:59:21;27.70;99.90
8231;DHT22;4156;50.908;6.974;2023-07-09T21:01:47;27.60;99.90
8231;DHT22;4156;50.908;6.974;2023-07-09T21:04:17;27.60;99.90
8231;DHT22;4156;50.908;6.974;2023-07-09T21:06:43;27.60;99.90